Time;durP1;ratioP1;P1;durP2;ratioP2;P2;SDS_P1;SDS_P2;PMS_P1;PMS_P2;Temp;Humidity;BMP_temperature;BMP_pressure;BME280_temperature;BME280_humidity;BME280_pressure;Samples;Min_cycle;Max_cycle;Signal;HPM_P1;HPM_P2
2024/04/01 00:01:30;;;;;;;;;;;;;;;;;;5100744;28;19914;-71
2024/04/01 00:03:56;;;;;;;;;;;;;;;;;;5096869;28;19959;-71
2024/04/01 00:06:22;;;;;;;;;;;;;;;;;;5096885;28;19908;-70
2024/04/01 00:08:48;;;;;;;;;;;;;;;;;;5096278;28;19912;-72
2024/04/01 00:11:15;;;;;;;;;;;;;;;;;;5096676;28;20372;-72
2024/04/01 00:13:41;;;;;;;;;;;;;;;;;;5096627;28;19908;-71
2024/04/01 00:16:08;;;;;;;;;;;;;;;;;;5096220;28;20003;-72
2024/04/01 00:18:34;;;;;;;;;;;;;;;;;;5096486;28;19997;-71
2024/04/01 00:21:01;;;;;;;;;;;;;;;;;;5096315;28;19912;-71
2024/04/01 00:23:27;;;;;;;;;;;;;;;;;;5096468;28;19908;-72
2024/04/01 00:25:52;;;;;;;;;;;;;;;;;;5096432;28;19915;-72
2024/04/01 00:28:18;;;;;;;;;;;;;;;;;;5096026;28;19908;-72
2024/04/01 00:30:44;;;;;;;;;;;;;;;;;;5096267;28;19958;-72
2024/04/01 00:33:10;;;;;;;;;;;;;;;;;;5096323;28;20284;-71
2024/04/01 00:35:36;;;;;;;;;;;;;;;;;;5095879;28;20353;-71
2024/04/01 00:38:03;;;;;;;;;;;;;;;;;;5096159;28;19908;-72
2024/04/01 00:40:28;;;;;;;;;;;;;;;;;;5096430;28;19908;-71
2024/04/01 00:42:54;;;;;;;;;;;;;;;;;;5095649;28;20379;-71
2024/04/01 00:45:20;;;;;;;;;;;;;;;;;;5096021;28;20348;-71
2024/04/01 00:47:46;;;;;;;;;;;;;;;;;;5095998;28;20368;-71
2024/04/01 00:50:12;;;;;;;;;;;;;;;;;;5095471;28;20436;-71
2024/04/01 00:52:38;;;;;;;;;;;;;;;;;;5095925;28;20287;-71
2024/04/01 00:55:04;;;;;;;;;;;;;;;;;;5077703;28;20288;-71
2024/04/01 00:57:30;;;;;;;;;;;;;;;;;;5095392;28;19908;-71
2024/04/01 00:59:56;;;;;;;;;;;;;;;;;;5095898;28;19909;-72
2024/04/01 01:02:22;;;;;;;;;;;;;;;;;;5095716;28;19908;-71
2024/04/01 01:04:48;;;;;;;;;;;;;;;;;;5095333;28;19915;-71
2024/04/01 01:07:14;;;;;;;;;;;;;;;;;;5095600;28;19909;-71
2024/04/01 01:09:40;;;;;;;;;;;;;;;;;;5095475;28;19924;-71
2024/04/01 01:12:06;;;;;;;;;;;;;;;;;;5094475;28;19912;-71
2024/04/01 01:14:31;;;;;;;;;;;;;;;;;;5095273;28;19934;-71
2024/04/01 01:16:57;;;;;;;;;;;;;;;;;;5095330;28;19908;-71
2024/04/01 01:19:23;;;;;;;;;;;;;;;;;;5095009;28;19947;-71
2024/04/01 01:21:49;;;;;;;;;;;;;;;;;;5095322;28;19908;-71
2024/04/01 01:24:16;;;;;;;;;;;;;;;;;;5094869;28;19965;-71
2024/04/01 01:26:42;;;;;;;;;;;;;;;;;;5095365;28;20250;-71
2024/04/01 01:29:08;;;;;;;;;;;;;;;;;;5095491;28;19923;-71
2024/04/01 01:31:34;;;;;;;;;;;;;;;;;;5076676;28;19961;-72
2024/04/01 01:34:05;;;;;;;;;;;;;;;;;;5095073;28;19949;-71
2024/04/01 01:36:30;;;;;;;;;;;;;;;;;;5095062;28;20302;-71
2024/04/01 01:38:56;;;;;;;;;;;;;;;;;;5094590;28;19969;-71
2024/04/01 01:41:22;;;;;;;;;;;;;;;;;;5094960;28;19908;-72
2024/04/01 01:43:48;;;;;;;;;;;;;;;;;;5094935;28;19951;-71
2024/04/01 01:46:14;;;;;;;;;;;;;;;;;;5094488;28;19912;-71
2024/04/01 01:48:40;;;;;;;;;;;;;;;;;;5094537;28;19908;-71
2024/04/01 01:51:07;;;;;;;;;;;;;;;;;;5094837;28;19996;-71
2024/04/01 01:53:33;;;;;;;;;;;;;;;;;;5094357;28;19915;-71
2024/04/01 01:55:59;;;;;;;;;;;;;;;;;;5095267;28;19994;-71
2024/04/01 01:58:25;;;;;;;;;;;;;;;;;;5094710;28;20321;-71
2024/04/01 02:00:51;;;;;;;;;;;;;;;;;;5076094;28;20403;-72
2024/04/01 02:03:17;;;;;;;;;;;;;;;;;;5094596;28;20280;-71
2024/04/01 02:05:43;;;;;;;;;;;;;;;;;;5094859;28;20380;-71
2024/04/01 02:08:09;;;;;;;;;;;;;;;;;;5094284;28;20463;-71
2024/04/01 02:10:38;;;;;;;;;;;;;;;;;;5094682;28;20023;-71
2024/04/01 02:13:05;;;;;;;;;;;;;;;;;;5094385;28;19915;-71
2024/04/01 02:15:31;;;;;;;;;;;;;;;;;;5094040;28;19940;-71
2024/04/01 02:17:57;;;;;;;;;;;;;;;;;;5094578;28;19915;-71
2024/04/01 02:20:23;;;;;;;;;;;;;;;;;;5075900;28;19908;-71
2024/04/01 02:22:49;;;;;;;;;;;;;;;;;;5076098;28;19909;-71
2024/04/01 02:25:17;;;;;;;;;;;;;;;;;;5093948;28;19912;-71
2024/04/01 02:27:43;;;;;;;;;;;;;;;;;;5093806;28;19912;-71
2024/04/01 02:30:09;;;;;;;;;;;;;;;;;;5094169;28;19923;-71
2024/04/01 02:32:35;;;;;;;;;;;;;;;;;;5094089;28;19912;-71
2024/04/01 02:35:01;;;;;;;;;;;;;;;;;;5075540;28;19916;-71
2024/04/01 02:37:27;;;;;;;;;;;;;;;;;;5075985;28;19912;-71
2024/04/01 02:39:53;;;;;;;;;;;;;;;;;;5093994;28;19943;-71
2024/04/01 02:42:19;;;;;;;;;;;;;;;;;;5093762;28;19948;-71
2024/04/01 02:44:45;;;;;;;;;;;;;;;;;;5094009;28;19912;-70
2024/04/01 02:47:11;;;;;;;;;;;;;;;;;;5093931;28;19912;-71
2024/04/01 02:49:37;;;;;;;;;;;;;;;;;;5093376;28;19920;-71
2024/04/01 02:52:03;;;;;;;;;;;;;;;;;;5093907;28;19912;-71
2024/04/01 02:54:29;;;;;;;;;;;;;;;;;;5093788;28;19908;-71
2024/04/01 02:56:55;;;;;;;;;;;;;;;;;;5093613;28;19916;-71
2024/04/01 02:59:21;;;;;;;;;;;;;;;;;;5093816;28;19915;-71
2024/04/01 03:01:47;;;;;;;;;;;;;;;;;;5093844;28;20003;-71
2024/04/01 03:04:14;;;;;;;;;;;;;;;;;;5093408;28;19915;-71
2024/04/01 03:06:40;;;;;;;;;;;;;;;;;;5093764;28;20334;-71
2024/04/01 03:09:05;;;;;;;;;;;;;;;;;;5093806;28;20015;-71
2024/04/01 03:11:31;;;;;;;;;;;;;;;;;;5093385;28;19909;-71
2024/04/01 03:13:58;;;;;;;;;;;;;;;;;;5075605;28;19911;-71
2024/04/01 03:16:24;;;;;;;;;;;;;;;;;;5093723;28;19921;-71
2024/04/01 03:18:50;;;;;;;;;;;;;;;;;;5075131;28;19934;-71
2024/04/01 03:21:16;;;;;;;;;;;;;;;;;;5093675;28;19912;-71
2024/04/01 03:23:42;;;;;;;;;;;;;;;;;;5075239;28;19908;-71
2024/04/01 03:26:07;;;;;;;;;;;;;;;;;;5075481;28;19908;-72
2024/04/01 03:28:33;;;;;;;;;;;;;;;;;;5093739;28;19916;-71
2024/04/01 03:30:59;;;;;;;;;;;;;;;;;;5093316;28;19916;-71
2024/04/01 03:33:25;;;;;;;;;;;;;;;;;;5093616;28;20428;-71
2024/04/01 03:35:51;;;;;;;;;;;;;;;;;;5094285;28;19940;-72
2024/04/01 03:38:17;;;;;;;;;;;;;;;;;;5097391;28;19915;-72
2024/04/01 03:40:43;;;;;;;;;;;;;;;;;;5097369;28;19908;-72
2024/04/01 03:43:09;;;;;;;;;;;;;;;;;;5097283;28;20417;-72
2024/04/01 03:45:35;;;;;;;;;;;;;;;;;;5096795;28;20372;-71
2024/04/01 03:48:04;;;;;;;;;;;;;;;;;;5097155;28;19916;-72
2024/04/01 03:50:30;;;;;;;;;;;;;;;;;;5078720;28;19978;-71
2024/04/01 03:52:56;;;;;;;;;;;;;;;;;;5097034;28;19915;-71
2024/04/01 03:55:22;;;;;;;;;;;;;;;;;;5097096;28;19908;-71
2024/04/01 03:57:48;;;;;;;;;;;;;;;;;;5096961;28;19959;-70
2024/04/01 04:00:14;;;;;;;;;;;;;;;;;;5078365;28;19908;-71
2024/04/01 04:02:42;;;;;;;;;;;;;;;;;;5096855;28;19999;-71
2024/04/01 04:05:08;;;;;;;;;;;;;;;;;;5096811;28;19908;-71
2024/04/01 04:07:34;;;;;;;;;;;;;;;;;;5077993;28;19912;-71
2024/04/01 04:10:03;;;;;;;;;;;;;;;;;;5095895;28;19959;-72
2024/04/01 04:12:30;;;;;;;;;;;;;;;;;;5095882;28;19923;-71
2024/04/01 04:14:56;;;;;;;;;;;;;;;;;;5096285;28;19942;-71
2024/04/01 04:17:22;;;;;;;;;;;;;;;;;;5096641;28;19912;-72
2024/04/01 04:19:48;;;;;;;;;;;;;;;;;;5096704;28;19915;-71
2024/04/01 04:22:14;;;;;;;;;;;;;;;;;;5096165;28;19908;-70
2024/04/01 04:24:42;;;;;;;;;;;;;;;;;;5096544;28;19909;-71
2024/04/01 04:27:08;;;;;;;;;;;;;;;;;;5095986;28;19943;-70
2024/04/01 04:29:34;;;;;;;;;;;;;;;;;;5096260;28;19954;-71
2024/04/01 04:32:00;;;;;;;;;;;;;;;;;;5096379;28;19934;-71
2024/04/01 04:34:26;;;;;;;;;;;;;;;;;;5095928;28;19908;-71
2024/04/01 04:36:52;;;;;;;;;;;;;;;;;;5096181;28;19954;-71
2024/04/01 04:39:24;;;;;;;;;;;;;;;;;;5096285;28;19908;-72
2024/04/01 04:41:50;;;;;;;;;;;;;;;;;;5095851;28;19915;-71
2024/04/01 04:44:16;;;;;;;;;;;;;;;;;;5096097;28;19912;-71
2024/04/01 04:46:42;;;;;;;;;;;;;;;;;;5095875;28;19931;-71
2024/04/01 04:49:08;;;;;;;;;;;;;;;;;;5095322;28;20276;-71
2024/04/01 04:51:34;;;;;;;;;;;;;;;;;;5095531;28;19999;-71
2024/04/01 04:54:06;;;;;;;;;;;;;;;;;;5095760;28;19950;-71
2024/04/01 04:56:32;;;;;;;;;;;;;;;;;;5095644;28;20368;-71
2024/04/01 04:58:58;;;;;;;;;;;;;;;;;;5095830;28;20033;-72
2024/04/01 05:01:24;;;;;;;;;;;;;;;;;;5095828;28;20372;-73
2024/04/01 05:03:50;;;;;;;;;;;;;;;;;;5077251;28;19908;-72
2024/04/01 05:06:16;;;;;;;;;;;;;;;;;;5095589;28;19949;-72
2024/04/01 05:08:42;;;;;;;;;;;;;;;;;;5095546;28;19916;-72
2024/04/01 05:11:08;;;;;;;;;;;;;;;;;;5095236;28;20414;-72
2024/04/01 05:13:34;;;;;;;;;;;;;;;;;;5095509;28;19908;-70
2024/04/01 05:16:00;;;;;;;;;;;;;;;;;;5095624;28;19941;-71
2024/04/01 05:18:26;;;;;;;;;;;;;;;;;;5094872;28;19908;-71
2024/04/01 05:20:52;;;;;;;;;;;;;;;;;;5095200;28;19931;-71
2024/04/01 05:23:18;;;;;;;;;;;;;;;;;;5094956;28;19916;-71
2024/04/01 05:25:45;;;;;;;;;;;;;;;;;;5094646;28;19908;-71
2024/04/01 05:28:11;;;;;;;;;;;;;;;;;;5094628;28;20276;-71
2024/04/01 05:30:37;;;;;;;;;;;;;;;;;;5056895;28;19916;-71
2024/04/01 05:33:03;;;;;;;;;;;;;;;;;;5073743;28;19912;-69
2024/04/01 05:35:33;;;;;;;;;;;;;;;;;;5086746;28;20007;-69
2024/04/01 05:38:00;;;;;;;;;;;;;;;;;;5089363;28;19918;-73
2024/04/01 05:40:26;;;;;;;;;;;;;;;;;;5072104;28;20638;-72
2024/04/01 05:42:54;;;;;;;;;;;;;;;;;;5075709;28;19955;-68
2024/04/01 05:45:20;;;;;;;;;;;;;;;;;;5070484;28;19908;-69
2024/04/01 05:47:48;;;;;;;;;;;;;;;;;;5075007;28;19974;-67
2024/04/01 05:50:17;;;;;;;;;;;;;;;;;;5089659;28;19920;-68
2024/04/01 05:52:43;;;;;;;;;;;;;;;;;;5090007;28;19965;-67
2024/04/01 05:55:09;;;;;;;;;;;;;;;;;;5074738;28;19919;-67
2024/04/01 05:57:35;;;;;;;;;;;;;;;;;;5078313;28;20276;-67
2024/04/01 06:00:03;;;;;;;;;;;;;;;;;;5102423;28;20329;-67
2024/04/01 06:02:29;;;;;;;;;;;;;;;;;;5073595;28;19960;-68
2024/04/01 06:04:55;;;;;;;;;;;;;;;;;;5072152;28;20053;-67
2024/04/01 06:07:26;;;;;;;;;;;;;;;;;;5064295;28;20360;-67
2024/04/01 06:09:52;;;;;;;;;;;;;;;;;;5088066;28;20015;-67
2024/04/01 06:12:18;;;;;;;;;;;;;;;;;;5082859;28;19954;-67
2024/04/01 06:14:44;;;;;;;;;;;;;;;;;;5092448;28;19912;-68
2024/04/01 06:18:38;;;;;;;;;;;;;;;;;;5100526;27;19920;-68
2024/04/01 06:21:04;;;;;;;;;;;;;;;;;;5088850;28;19918;-68
2024/04/01 06:23:30;;;;;;;;;;;;;;;;;;5082058;28;20244;-69
2024/04/01 06:29:57;;;;;;;;;;;;;;;;;;5113371;27;19920;-67
2024/04/01 06:32:23;;;;;;;;;;;;;;;;;;5116349;28;20530;-68
2024/04/01 06:34:49;;;;;;;;;;;;;;;;;;5123909;28;19912;-67
2024/04/01 06:37:15;;;;;;;;;;;;;;;;;;5110948;28;20359;-68
2024/04/01 06:39:41;;;;;;;;;;;;;;;;;;5118272;27;19912;-67
2024/04/01 06:42:07;;;;;;;;;;;;;;;;;;5110363;28;19916;-67
2024/04/01 06:44:33;;;;;;;;;;;;;;;;;;5107937;28;20332;-67
2024/04/01 06:46:59;;;;;;;;;;;;;;;;;;5113764;28;20002;-69
2024/04/01 06:52:09;;;;;;;;;;;;;;;;;;5124010;27;19916;-68
2024/04/01 06:57:55;;;;;;;;;;;;;;;;;;5145298;27;19919;-67
2024/04/01 07:01:18;;;;;;;;;;;;;;;;;;5119116;27;19930;-66
2024/04/01 07:04:19;;;;;;;;;;;;;;;;;;5087556;27;19924;-70
2024/04/01 07:08:36;;;;;;;;;;;;;;;;;;5089451;28;19923;-68
2024/04/01 07:11:13;;;;;;;;;;;;;;;;;;5088735;27;19916;-67
2024/04/01 07:13:39;;;;;;;;;;;;;;;;;;5090162;28;19912;-68
2024/04/01 07:16:05;;;;;;;;;;;;;;;;;;5089078;28;19916;-69
2024/04/01 07:18:33;;;;;;;;;;;;;;;;;;5088548;28;19908;-70
2024/04/01 07:20:59;;;;;;;;;;;;;;;;;;5085855;28;19912;-68
2024/04/01 07:23:26;;;;;;;;;;;;;;;;;;5071801;28;19935;-69
2024/04/01 07:25:52;;;;;;;;;;;;;;;;;;5067456;28;19917;-69
2024/04/01 07:37:42;;;;;;;;;;;;;;;;;;5113235;27;19923;-69
2024/04/01 07:43:13;;;;;;;;;;;;;;;;;;5117119;27;19923;-69
2024/04/01 07:45:39;;;;;;;;;;;;;;;;;;5116844;27;19919;-67
2024/04/01 07:48:05;;;;;;;;;;;;;;;;;;5096019;28;20368;-69
2024/04/01 07:53:04;;;;;;;;;;;;;;;;;;5117510;27;19919;-67
2024/04/01 07:55:30;;;;;;;;;;;;;;;;;;5130577;27;20276;-67
2024/04/01 07:59:20;;;;;;;;;;;;;;;;;;5083354;27;19923;-68
2024/04/01 08:01:46;;;;;;;;;;;;;;;;;;5086960;28;19912;-68
2024/04/01 08:04:14;;;;;;;;;;;;;;;;;;5086868;28;19987;-69
2024/04/01 08:06:40;;;;;;;;;;;;;;;;;;5087167;28;19985;-69
2024/04/01 08:09:06;;;;;;;;;;;;;;;;;;5083473;28;19912;-68
2024/04/01 08:11:32;;;;;;;;;;;;;;;;;;5078228;28;20006;-66
2024/04/01 08:15:17;;;;;;;;;;;;;;;;;;5087168;27;19917;-66
2024/04/01 08:17:44;;;;;;;;;;;;;;;;;;5079071;28;20388;-65
2024/04/01 08:23:31;;;;;;;;;;;;;;;;;;5087476;27;19920;-67
2024/04/01 08:27:57;;;;;;;;;;;;;;;;;;5087435;27;19923;-66
2024/04/01 08:30:23;;;;;;;;;;;;;;;;;;5083746;28;19913;-67
2024/04/01 08:32:49;;;;;;;;;;;;;;;;;;5072555;28;20012;-66
2024/04/01 08:35:15;;;;;;;;;;;;;;;;;;5089514;28;20403;-65
2024/04/01 08:37:41;;;;;;;;;;;;;;;;;;5080824;28;19913;-65
2024/04/01 08:40:07;;;;;;;;;;;;;;;;;;5069314;28;20014;-67
2024/04/01 08:42:34;;;;;;;;;;;;;;;;;;5075282;28;19912;-70
2024/04/01 08:45:42;;;;;;;;;;;;;;;;;;5147250;27;20314;-69
2024/04/01 08:48:09;;;;;;;;;;;;;;;;;;5130982;27;19915;-71
2024/04/01 08:53:35;;;;;;;;;;;;;;;;;;5072008;28;20002;-70
2024/04/01 08:56:01;;;;;;;;;;;;;;;;;;5067129;28;20384;-69
2024/04/01 08:58:27;;;;;;;;;;;;;;;;;;5062341;28;19978;-68
2024/04/01 09:00:53;;;;;;;;;;;;;;;;;;5062580;28;19978;-70
2024/04/01 09:05:49;;;;;;;;;;;;;;;;;;5106298;27;19920;-69
2024/04/01 09:08:15;;;;;;;;;;;;;;;;;;5105182;28;19978;-70
2024/04/01 09:10:41;;;;;;;;;;;;;;;;;;5104811;28;20388;-69
2024/04/01 09:13:08;;;;;;;;;;;;;;;;;;5106278;28;20322;-69
2024/04/01 09:15:34;;;;;;;;;;;;;;;;;;5103781;28;19908;-70
2024/04/01 09:18:00;;;;;;;;;;;;;;;;;;5100189;28;19937;-68
2024/04/01 09:20:26;;;;;;;;;;;;;;;;;;5102750;28;20388;-68
2024/04/01 09:22:52;;;;;;;;;;;;;;;;;;5105243;27;20467;-68
2024/04/01 09:25:18;;;;;;;;;;;;;;;;;;5098495;28;20022;-68
2024/04/01 09:27:44;;;;;;;;;;;;;;;;;;5102125;28;19916;-67
2024/04/01 09:30:10;;;;;;;;;;;;;;;;;;5104978;28;20358;-68
2024/04/01 09:32:36;;;;;;;;;;;;;;;;;;5101149;28;20058;-67
2024/04/01 09:37:10;;;;;;;;;;;;;;;;;;5097747;27;19923;-66
2024/04/01 09:39:36;;;;;;;;;;;;;;;;;;5081056;28;19924;-68
2024/04/01 09:42:02;;;;;;;;;;;;;;;;;;5083251;28;19993;-67
2024/04/01 09:44:29;;;;;;;;;;;;;;;;;;5090921;28;20010;-67
2024/04/01 09:46:56;;;;;;;;;;;;;;;;;;5083096;28;19912;-68
2024/04/01 09:49:21;;;;;;;;;;;;;;;;;;5094702;28;19919;-68
2024/04/01 09:51:47;;;;;;;;;;;;;;;;;;5083440;28;20335;-70
2024/04/01 09:54:13;;;;;;;;;;;;;;;;;;5082005;28;19970;-67
2024/04/01 09:56:51;;;;;;;;;;;;;;;;;;5084562;27;19913;-69
2024/04/01 09:59:20;;;;;;;;;;;;;;;;;;5080400;28;19919;-71
2024/04/01 10:01:46;;;;;;;;;;;;;;;;;;5086576;28;19963;-69
2024/04/01 10:04:12;;;;;;;;;;;;;;;;;;5084144;28;20427;-69
2024/04/01 10:06:38;;;;;;;;;;;;;;;;;;5086690;28;19912;-68
2024/04/01 10:09:04;;;;;;;;;;;;;;;;;;5086406;28;20019;-67
2024/04/01 10:11:30;;;;;;;;;;;;;;;;;;5086048;28;19995;-66
2024/04/01 10:13:56;;;;;;;;;;;;;;;;;;5086793;28;19961;-66
2024/04/01 10:17:33;;;;;;;;;;;;;;;;;;5079168;28;19931;-66
2024/04/01 10:20:30;;;;;;;;;;;;;;;;;;5087316;28;20291;-67
2024/04/01 10:22:56;;;;;;;;;;;;;;;;;;5088507;28;19913;-68
2024/04/01 10:25:22;;;;;;;;;;;;;;;;;;5087085;28;19909;-68
2024/04/01 10:27:48;;;;;;;;;;;;;;;;;;5086049;28;19912;-68
2024/04/01 10:30:14;;;;;;;;;;;;;;;;;;5084063;28;19950;-69
2024/04/01 10:32:40;;;;;;;;;;;;;;;;;;5085824;28;19920;-71
2024/04/01 10:35:06;;;;;;;;;;;;;;;;;;5086351;28;19913;-71
2024/04/01 10:37:32;;;;;;;;;;;;;;;;;;5084885;28;19968;-69
2024/04/01 10:39:58;;;;;;;;;;;;;;;;;;5082417;28;19921;-70
2024/04/01 10:42:24;;;;;;;;;;;;;;;;;;5085350;28;19919;-70
2024/04/01 10:44:50;;;;;;;;;;;;;;;;;;5085850;28;19916;-78
2024/04/01 10:47:16;;;;;;;;;;;;;;;;;;5082575;28;19950;-70
2024/04/01 10:49:42;;;;;;;;;;;;;;;;;;5084462;28;20443;-69
2024/04/01 10:52:08;;;;;;;;;;;;;;;;;;5090062;28;19951;-71
2024/04/01 10:54:34;;;;;;;;;;;;;;;;;;5097770;28;19959;-70
2024/04/01 10:57:00;;;;;;;;;;;;;;;;;;5088188;28;19923;-69
2024/04/01 10:59:26;;;;;;;;;;;;;;;;;;5087220;28;19961;-69
2024/04/01 11:01:52;;;;;;;;;;;;;;;;;;5087649;28;20523;-75
2024/04/01 11:04:18;;;;;;;;;;;;;;;;;;5088211;28;19912;-74
2024/04/01 11:06:44;;;;;;;;;;;;;;;;;;5087255;28;19919;-74
2024/04/01 11:09:10;;;;;;;;;;;;;;;;;;5085965;28;19948;-70
2024/04/01 11:11:36;;;;;;;;;;;;;;;;;;5091430;28;19927;-68
2024/04/01 11:14:02;;;;;;;;;;;;;;;;;;5085611;28;20003;-72
2024/04/01 11:16:28;;;;;;;;;;;;;;;;;;5084992;28;19915;-72
2024/04/01 11:18:54;;;;;;;;;;;;;;;;;;5083720;28;19927;-73
2024/04/01 11:22:53;;;;;;;;;;;;;;;;;;5086829;27;20292;-73
2024/04/01 11:25:19;;;;;;;;;;;;;;;;;;5086400;28;19919;-72
2024/04/01 11:27:45;;;;;;;;;;;;;;;;;;5087585;28;19909;-72
2024/04/01 11:30:11;;;;;;;;;;;;;;;;;;5087166;28;19944;-72
2024/04/01 11:32:38;;;;;;;;;;;;;;;;;;5088394;28;19966;-72
2024/04/01 11:35:04;;;;;;;;;;;;;;;;;;5090008;28;20002;-72
2024/04/01 11:37:30;;;;;;;;;;;;;;;;;;5090520;28;19946;-71
2024/04/01 11:39:56;;;;;;;;;;;;;;;;;;5090393;28;19913;-69
2024/04/01 11:42:23;;;;;;;;;;;;;;;;;;5090739;28;19920;-69
2024/04/01 11:44:49;;;;;;;;;;;;;;;;;;5090653;28;20368;-69
2024/04/01 11:47:15;;;;;;;;;;;;;;;;;;5090561;28;19948;-69
2024/04/01 11:49:41;;;;;;;;;;;;;;;;;;5090571;28;19955;-69
2024/04/01 11:52:07;;;;;;;;;;;;;;;;;;5090239;28;19913;-70
2024/04/01 11:54:33;;;;;;;;;;;;;;;;;;5094174;28;19912;-68
2024/04/01 11:56:59;;;;;;;;;;;;;;;;;;5110913;28;19919;-71
2024/04/01 11:59:25;;;;;;;;;;;;;;;;;;5094184;28;19952;-69
2024/04/01 12:01:51;;;;;;;;;;;;;;;;;;5089910;28;20337;-71
2024/04/01 12:04:17;;;;;;;;;;;;;;;;;;5089897;28;19908;-71
2024/04/01 12:06:43;;;;;;;;;;;;;;;;;;5090429;28;19919;-70
2024/04/01 12:09:11;;;;;;;;;;;;;;;;;;5090154;28;19934;-71
2024/04/01 12:11:37;;;;;;;;;;;;;;;;;;5091077;28;19920;-72
2024/04/01 12:14:05;;;;;;;;;;;;;;;;;;5109863;28;19912;-73
2024/04/01 12:16:31;;;;;;;;;;;;;;;;;;5110457;28;19947;-70
2024/04/01 12:18:57;;;;;;;;;;;;;;;;;;5109946;28;20001;-70
2024/04/01 12:21:22;;;;;;;;;;;;;;;;;;5094233;28;19924;-69
2024/04/01 12:23:48;;;;;;;;;;;;;;;;;;5089258;28;19918;-69
2024/04/01 12:26:14;;;;;;;;;;;;;;;;;;5088549;28;20261;-67
2024/04/01 12:28:40;;;;;;;;;;;;;;;;;;5088410;28;19917;-68
2024/04/01 12:31:07;;;;;;;;;;;;;;;;;;5089864;28;20383;-68
2024/04/01 12:33:33;;;;;;;;;;;;;;;;;;5079764;28;19979;-67
2024/04/01 12:35:58;;;;;;;;;;;;;;;;;;5076170;28;19908;-65
2024/04/01 12:38:24;;;;;;;;;;;;;;;;;;5074393;28;19913;-67
2024/04/01 12:40:50;;;;;;;;;;;;;;;;;;5075870;28;19912;-68
2024/04/01 12:43:16;;;;;;;;;;;;;;;;;;5073909;28;19919;-69
2024/04/01 12:45:42;;;;;;;;;;;;;;;;;;5074160;28;20003;-72
2024/04/01 12:48:08;;;;;;;;;;;;;;;;;;5073803;28;19915;-72
2024/04/01 12:50:34;;;;;;;;;;;;;;;;;;5072825;28;19908;-73
2024/04/01 12:53:00;;;;;;;;;;;;;;;;;;5072750;28;19931;-72
2024/04/01 12:55:26;;;;;;;;;;;;;;;;;;5073725;28;19934;-73
2024/04/01 12:57:52;;;;;;;;;;;;;;;;;;5075420;28;19943;-73
2024/04/01 13:00:19;;;;;;;;;;;;;;;;;;5075981;28;19916;-72
2024/04/01 13:02:45;;;;;;;;;;;;;;;;;;5075591;28;19939;-72
2024/04/01 13:05:10;;;;;;;;;;;;;;;;;;5075965;28;19995;-72
2024/04/01 13:07:36;;;;;;;;;;;;;;;;;;5075415;28;19909;-72
2024/04/01 13:10:03;;;;;;;;;;;;;;;;;;5076078;28;19908;-72
2024/04/01 13:12:29;;;;;;;;;;;;;;;;;;5075781;28;19908;-71
2024/04/01 13:14:55;;;;;;;;;;;;;;;;;;5075297;28;19915;-71
2024/04/01 13:17:21;;;;;;;;;;;;;;;;;;5075573;28;20368;-71
2024/04/01 13:19:47;;;;;;;;;;;;;;;;;;5075608;28;19916;-72
2024/04/01 13:22:13;;;;;;;;;;;;;;;;;;5074946;28;19924;-72
2024/04/01 13:24:39;;;;;;;;;;;;;;;;;;5073023;28;19915;-72
2024/04/01 13:27:05;;;;;;;;;;;;;;;;;;5075786;28;20010;-71
2024/04/01 13:29:31;;;;;;;;;;;;;;;;;;5072962;28;19935;-72
2024/04/01 13:31:57;;;;;;;;;;;;;;;;;;5073390;28;19908;-72
2024/04/01 13:34:23;;;;;;;;;;;;;;;;;;5074492;28;19917;-72
2024/04/01 13:36:49;;;;;;;;;;;;;;;;;;5073676;28;19948;-72
2024/04/01 13:39:15;;;;;;;;;;;;;;;;;;5075306;28;19932;-72
2024/04/01 13:41:41;;;;;;;;;;;;;;;;;;5075176;28;19917;-72
2024/04/01 13:44:07;;;;;;;;;;;;;;;;;;5074120;28;19908;-73
2024/04/01 13:46:33;;;;;;;;;;;;;;;;;;5074886;28;19913;-72
2024/04/01 13:48:59;;;;;;;;;;;;;;;;;;5075032;28;19913;-72
2024/04/01 13:51:25;;;;;;;;;;;;;;;;;;5074722;28;19908;-72
2024/04/01 13:53:51;;;;;;;;;;;;;;;;;;5074992;28;20408;-72
2024/04/01 13:56:17;;;;;;;;;;;;;;;;;;5075179;28;20483;-72
2024/04/01 13:58:42;;;;;;;;;;;;;;;;;;5073111;28;19913;-72
2024/04/01 14:01:08;;;;;;;;;;;;;;;;;;5074778;28;19934;-72
2024/04/01 14:03:35;;;;;;;;;;;;;;;;;;5074749;28;19908;-72
2024/04/01 14:06:00;;;;;;;;;;;;;;;;;;5074170;28;19908;-73
2024/04/01 14:08:27;;;;;;;;;;;;;;;;;;5074772;28;20008;-72
2024/04/01 14:10:53;;;;;;;;;;;;;;;;;;5074194;28;19939;-72
2024/04/01 14:13:19;;;;;;;;;;;;;;;;;;5074675;28;19909;-72
2024/04/01 14:15:45;;;;;;;;;;;;;;;;;;5074583;28;19908;-72
2024/04/01 14:18:11;;;;;;;;;;;;;;;;;;5074417;28;19915;-72
2024/04/01 14:20:37;;;;;;;;;;;;;;;;;;5074205;28;19909;-72
2024/04/01 14:23:03;;;;;;;;;;;;;;;;;;5074571;28;19963;-72
2024/04/01 14:25:29;;;;;;;;;;;;;;;;;;5074033;28;19977;-73
2024/04/01 14:27:55;;;;;;;;;;;;;;;;;;5073094;28;19940;-72
2024/04/01 14:30:21;;;;;;;;;;;;;;;;;;5074328;28;19909;-73
2024/04/01 14:32:47;;;;;;;;;;;;;;;;;;5073985;28;19908;-72
2024/04/01 14:35:13;;;;;;;;;;;;;;;;;;5074281;28;19912;-72
2024/04/01 14:37:41;;;;;;;;;;;;;;;;;;5074267;28;19916;-72
2024/04/01 14:40:07;;;;;;;;;;;;;;;;;;5073868;28;19912;-72
2024/04/01 14:42:33;;;;;;;;;;;;;;;;;;5074015;28;19928;-72
2024/04/01 14:44:59;;;;;;;;;;;;;;;;;;5074057;28;19908;-72
2024/04/01 14:47:25;;;;;;;;;;;;;;;;;;5073716;28;19999;-72
2024/04/01 14:49:51;;;;;;;;;;;;;;;;;;5074023;28;19908;-72
2024/04/01 14:52:17;;;;;;;;;;;;;;;;;;5074030;28;19909;-72
2024/04/01 14:54:43;;;;;;;;;;;;;;;;;;5073683;28;19999;-72
2024/04/01 14:57:09;;;;;;;;;;;;;;;;;;5073656;28;20325;-72
2024/04/01 14:59:37;;;;;;;;;;;;;;;;;;5074063;28;19955;-72
2024/04/01 15:02:03;;;;;;;;;;;;;;;;;;5073463;28;19936;-72
2024/04/01 15:04:29;;;;;;;;;;;;;;;;;;5073867;28;19931;-73
2024/04/01 15:06:55;;;;;;;;;;;;;;;;;;5073833;28;20004;-73
2024/04/01 15:09:21;;;;;;;;;;;;;;;;;;5073476;28;19909;-73
2024/04/01 15:11:46;;;;;;;;;;;;;;;;;;5073870;28;19935;-73
2024/04/01 15:14:12;;;;;;;;;;;;;;;;;;5073394;28;19954;-72
2024/04/01 15:16:38;;;;;;;;;;;;;;;;;;5073799;28;19908;-73
2024/04/01 15:19:04;;;;;;;;;;;;;;;;;;5074262;28;19908;-72
2024/04/01 15:21:30;;;;;;;;;;;;;;;;;;5071832;28;20381;-72
2024/04/01 15:23:56;;;;;;;;;;;;;;;;;;5073819;28;20369;-73
2024/04/01 15:26:22;;;;;;;;;;;;;;;;;;5072436;28;20376;-72
2024/04/01 15:28:48;;;;;;;;;;;;;;;;;;5073472;28;19909;-74
2024/04/01 15:31:15;;;;;;;;;;;;;;;;;;5073640;28;19908;-71
2024/04/01 15:33:41;;;;;;;;;;;;;;;;;;5073948;28;19939;-73
2024/04/01 15:36:06;;;;;;;;;;;;;;;;;;5073289;28;19909;-73
2024/04/01 15:40:50;;;;;;;;;;;;;;;;;;5091399;27;19923;-72
2024/04/01 15:43:16;;;;;;;;;;;;;;;;;;5090858;28;20372;-71
2024/04/01 15:45:42;;;;;;;;;;;;;;;;;;5091372;28;19908;-71
2024/04/01 15:48:08;;;;;;;;;;;;;;;;;;5091369;28;19954;-71
2024/04/01 15:50:34;;;;;;;;;;;;;;;;;;5090839;28;20373;-71
2024/04/01 15:53:00;;;;;;;;;;;;;;;;;;5089585;28;19912;-71
2024/04/01 15:55:26;;;;;;;;;;;;;;;;;;5089529;28;19909;-72
2024/04/01 15:57:52;;;;;;;;;;;;;;;;;;5090545;28;19915;-72
2024/04/01 16:00:18;;;;;;;;;;;;;;;;;;5090769;28;19928;-71
2024/04/01 16:02:44;;;;;;;;;;;;;;;;;;5090912;28;20357;-71
2024/04/01 16:05:10;;;;;;;;;;;;;;;;;;5090464;28;19958;-71
2024/04/01 16:07:36;;;;;;;;;;;;;;;;;;5090970;28;19909;-72
2024/04/01 16:10:03;;;;;;;;;;;;;;;;;;5090783;28;19956;-72
2024/04/01 16:12:29;;;;;;;;;;;;;;;;;;5090526;28;19940;-71
2024/04/01 16:14:55;;;;;;;;;;;;;;;;;;5089460;28;19962;-71
2024/04/01 16:17:21;;;;;;;;;;;;;;;;;;5090665;28;19913;-71
2024/04/01 16:19:46;;;;;;;;;;;;;;;;;;5090529;28;19956;-72
2024/04/01 16:22:12;;;;;;;;;;;;;;;;;;5090845;28;19908;-72
2024/04/01 16:24:38;;;;;;;;;;;;;;;;;;5090246;28;20447;-73
2024/04/01 16:27:05;;;;;;;;;;;;;;;;;;5089251;28;20353;-72
2024/04/01 16:29:31;;;;;;;;;;;;;;;;;;5090607;28;19919;-73
2024/04/01 16:31:57;;;;;;;;;;;;;;;;;;5089967;28;19934;-73
2024/04/01 16:34:23;;;;;;;;;;;;;;;;;;5090517;28;19908;-73
2024/04/01 16:36:49;;;;;;;;;;;;;;;;;;5090475;28;19909;-72
2024/04/01 16:39:15;;;;;;;;;;;;;;;;;;5097175;28;19920;-72
2024/04/01 16:41:41;;;;;;;;;;;;;;;;;;5110739;28;19908;-72
2024/04/01 16:46:03;;;;;;;;;;;;;;;;;;5111513;27;19916;-71
2024/04/01 16:48:29;;;;;;;;;;;;;;;;;;5110238;28;19995;-72
2024/04/01 16:50:55;;;;;;;;;;;;;;;;;;5111564;28;19980;-71
2024/04/01 16:53:21;;;;;;;;;;;;;;;;;;5111126;28;19908;-71
2024/04/01 16:55:47;;;;;;;;;;;;;;;;;;5111479;28;19960;-72
2024/04/01 16:59:26;;;;;;;;;;;;;;;;;;5091336;27;19913;-70
2024/04/01 17:02:06;;;;;;;;;;;;;;;;;;5173463;27;19998;-71
2024/04/01 17:06:29;;;;;;;;;;;;;;;;;;5091912;27;20264;-70
2024/04/01 17:08:56;;;;;;;;;;;;;;;;;;5091054;28;20002;-71
2024/04/01 17:11:21;;;;;;;;;;;;;;;;;;5090129;28;20311;-70
2024/04/01 17:13:50;;;;;;;;;;;;;;;;;;5090911;28;19913;-72
2024/04/01 17:17:51;;;;;;;;;;;;;;;;;;5091560;28;19912;-71
2024/04/01 17:20:17;;;;;;;;;;;;;;;;;;5091439;28;20010;-72
2024/04/01 17:22:44;;;;;;;;;;;;;;;;;;5091095;28;20280;-70
2024/04/01 17:25:10;;;;;;;;;;;;;;;;;;5091264;28;19958;-71
2024/04/01 17:27:36;;;;;;;;;;;;;;;;;;5091154;28;20372;-71
2024/04/01 17:30:02;;;;;;;;;;;;;;;;;;5090741;28;19916;-71
2024/04/01 17:33:29;;;;;;;;;;;;;;;;;;5091413;27;19923;-73
2024/04/01 17:36:08;;;;;;;;;;;;;;;;;;5111648;27;20272;-72
2024/04/01 17:39:54;;;;;;;;;;;;;;;;;;5071991;28;19912;-71